Time;durP1;ratioP1;P1;durP2;ratioP2;P2;SDS_P1;SDS_P2;PMS_P1;PMS_P2;Temp;Humidity;BMP_temperature;BMP_pressure;BME280_temperature;BME280_humidity;BME280_pressure;Samples;Min_cycle;Max_cycle;Signal;HPM_P1;HPM_P2
2022/11/10 00:00:34;;;;;;;31.80;20.23;;;8.90;99.90;;;;;;5011544;28;20347;-70
2022/11/10 00:03:03;;;;;;;30.90;21.20;;;9.00;99.90;;;;;;5010529;28;20604;-69
2022/11/10 00:05:30;;;;;;;32.77;20.63;;;8.90;99.90;;;;;;5011065;28;20258;-72
2022/11/10 00:07:57;;;;;;;35.77;21.87;;;8.90;99.90;;;;;;5010959;28;20207;-71
2022/11/10 00:10:24;;;;;;;33.23;19.63;;;8.90;99.90;;;;;;5010395;28;20211;-71
2022/11/10 00:12:52;;;;;;;34.30;21.10;;;8.90;99.90;;;;;;5010809;28;20533;-71
2022/11/10 00:18:04;;;;;;;31.17;20.23;;;8.90;99.90;;;;;;5010719;28;20198;-71
2022/11/10 00:20:32;;;;;;;34.97;21.27;;;8.90;99.90;;;;;;5010735;28;20215;-70
2022/11/10 00:22:59;;;;;;;30.87;19.97;;;8.90;99.90;;;;;;5006960;28;20586;-70
2022/11/10 00:25:28;;;;;;;30.77;19.93;;;8.90;99.90;;;;;;5007928;28;20658;-70
2022/11/10 00:27:58;;;;;;;30.03;19.87;;;8.90;99.90;;;;;;5009264;28;20298;-71
2022/11/10 00:30:24;;;;;;;30.40;20.73;;;8.90;99.90;;;;;;5008545;28;20226;-70
2022/11/10 00:32:51;;;;;;;30.60;20.63;;;8.90;99.90;;;;;;5007003;28;20215;-71
2022/11/10 00:35:18;;;;;;;31.93;20.57;;;8.90;99.90;;;;;;5008471;28;20208;-71
2022/11/10 00:37:45;;;;;;;35.90;22.50;;;8.90;99.90;;;;;;5011816;28;20203;-73
2022/11/10 00:40:12;;;;;;;34.47;21.47;;;8.90;99.90;;;;;;5011083;28;20242;-72
2022/11/10 00:42:39;;;;;;;32.87;21.67;;;8.90;99.90;;;;;;5009463;28;20207;-71
2022/11/10 00:45:09;;;;;;;32.13;20.73;;;8.90;99.90;;;;;;5010483;28;20227;-72
2022/11/10 00:47:36;;;;;;;32.47;20.77;;;8.90;99.90;;;;;;5010869;28;20207;-72
2022/11/10 00:50:03;;;;;;;31.53;21.47;;;8.80;99.90;;;;;;5010835;28;20239;-73
2022/11/10 00:52:29;;;;;;;33.53;21.97;;;8.90;99.90;;;;;;5011254;28;20215;-71
2022/11/10 00:54:56;;;;;;;34.70;20.47;;;8.90;99.90;;;;;;5011370;28;20607;-71
2022/11/10 00:57:23;;;;;;;34.00;22.10;;;8.90;99.90;;;;;;5010313;28;20215;-73
2022/11/10 00:59:49;;;;;;;33.43;20.77;;;8.90;99.90;;;;;;5009711;28;20238;-72
2022/11/10 01:02:18;;;;;;;34.37;20.43;;;8.90;99.90;;;;;;5011035;28;20211;-72
2022/11/10 01:04:44;;;;;;;31.40;20.33;;;8.90;99.90;;;;;;5008785;28;20239;-72
2022/11/10 01:07:11;;;;;;;33.30;21.07;;;8.90;99.90;;;;;;5010360;28;20219;-72
2022/11/10 01:09:38;;;;;;;35.20;20.83;;;8.90;99.90;;;;;;5010998;28;20607;-71
2022/11/10 01:12:05;;;;;;;34.87;20.40;;;8.90;99.90;;;;;;5010127;28;20214;-71
2022/11/10 01:14:32;;;;;;;32.67;20.87;;;8.90;99.90;;;;;;5009139;28;20207;-72
2022/11/10 01:16:58;;;;;;;31.73;21.20;;;8.90;99.90;;;;;;5011461;28;20211;-73
2022/11/10 01:19:26;;;;;;;32.23;21.23;;;8.90;99.90;;;;;;5009772;28;20203;-72
2022/11/10 01:21:53;;;;;;;33.50;21.13;;;8.90;99.90;;;;;;5011044;28;20559;-72
2022/11/10 01:24:21;;;;;;;32.30;22.13;;;8.90;99.90;;;;;;5009995;28;20207;-72
2022/11/10 01:26:48;;;;;;;35.47;21.53;;;8.90;99.90;;;;;;5009865;28;20676;-72
2022/11/10 01:29:15;;;;;;;30.13;20.77;;;9.00;99.90;;;;;;5010259;28;20219;-72
2022/11/10 01:31:42;;;;;;;31.70;20.20;;;8.90;99.90;;;;;;5009650;28;20207;-72
2022/11/10 01:34:08;;;;;;;33.10;20.13;;;9.00;99.90;;;;;;5008952;28;20687;-72
2022/11/10 01:36:36;;;;;;;35.87;21.77;;;9.00;99.90;;;;;;5011132;28;20241;-72
2022/11/10 01:39:03;;;;;;;34.00;21.97;;;8.90;99.90;;;;;;5015291;28;20199;-73
2022/11/10 01:41:30;;;;;;;31.37;20.87;;;8.90;99.90;;;;;;5015147;28;20203;-73
2022/11/10 01:44:13;;;;;;;36.23;21.87;;;8.90;99.90;;;;;;5013038;28;20215;-73
2022/11/10 01:46:40;;;;;;;34.43;21.47;;;9.00;99.90;;;;;;5013338;28;20727;-73
2022/11/10 01:49:07;;;;;;;31.77;20.77;;;9.00;99.90;;;;;;5011869;28;20208;-72
2022/11/10 01:51:39;;;;;;;35.80;22.07;;;9.00;99.90;;;;;;5013639;28;20211;-73
2022/11/10 01:54:10;;;;;;;32.13;20.70;;;9.00;99.90;;;;;;5012992;28;20251;-73
2022/11/10 01:56:41;;;;;;;32.20;21.10;;;9.00;99.90;;;;;;5014037;28;20318;-72
2022/11/10 01:59:13;;;;;;;34.57;21.47;;;9.00;99.90;;;;;;5013609;28;20227;-71
2022/11/10 02:01:40;;;;;;;34.47;21.40;;;9.00;99.90;;;;;;5010848;28;20203;-72
2022/11/10 02:04:10;;;;;;;35.13;21.93;;;9.00;99.90;;;;;;5012151;28;20239;-73
2022/11/10 02:06:43;;;;;;;31.00;20.10;;;9.00;99.90;;;;;;5013451;28;20230;-72
2022/11/10 02:09:11;;;;;;;33.87;21.30;;;9.00;99.90;;;;;;5006581;28;20210;-72
2022/11/10 02:11:39;;;;;;;34.67;21.20;;;9.00;99.90;;;;;;5009974;28;20222;-73
2022/11/10 02:14:06;;;;;;;34.90;21.47;;;9.00;99.90;;;;;;5011819;28;20659;-72
2022/11/10 02:16:33;;;;;;;34.23;21.93;;;9.00;99.90;;;;;;5013458;28;20207;-72
2022/11/10 02:19:13;;;;;;;33.27;21.20;;;9.00;99.90;;;;;;5011408;28;20325;-72
2022/11/10 02:21:41;;;;;;;32.10;20.07;;;9.00;99.90;;;;;;5013395;28;20571;-73
2022/11/10 02:24:09;;;;;;;34.23;21.13;;;9.00;99.90;;;;;;5012403;28;20575;-72
2022/11/10 02:26:39;;;;;;;32.37;21.90;;;9.10;99.90;;;;;;5012024;28;20227;-72
2022/11/10 02:29:05;;;;;;;31.50;20.43;;;9.00;99.90;;;;;;5013964;28;20204;-72
2022/11/10 02:31:32;;;;;;;32.77;20.60;;;9.10;99.90;;;;;;5013154;28;20214;-71
2022/11/10 02:33:59;;;;;;;33.73;20.40;;;9.10;99.90;;;;;;5013277;28;20211;-72
2022/11/10 02:36:26;;;;;;;32.67;21.17;;;9.10;99.90;;;;;;5012242;28;20187;-71
2022/11/10 02:38:54;;;;;;;31.93;21.87;;;9.10;99.90;;;;;;5013686;28;20528;-70
2022/11/10 02:41:21;;;;;;;32.80;20.07;;;9.10;99.90;;;;;;5011752;28;20210;-72
2022/11/10 02:43:48;;;;;;;35.73;21.23;;;9.10;99.90;;;;;;5011918;28;20211;-72
2022/11/10 02:46:15;;;;;;;36.37;21.97;;;9.10;99.90;;;;;;5012097;28;20235;-71
2022/11/10 02:48:41;;;;;;;32.40;21.47;;;9.10;99.90;;;;;;5013943;28;20210;-72
2022/11/10 02:51:08;;;;;;;34.27;21.87;;;9.40;99.90;;;;;;5012009;28;20207;-72
2022/11/10 02:53:35;;;;;;;32.53;21.80;;;9.20;99.90;;;;;;5010503;28;20199;-72
2022/11/10 02:56:04;;;;;;;32.97;20.87;;;9.20;99.90;;;;;;5012770;28;20199;-71
2022/11/10 02:58:30;;;;;;;32.23;20.63;;;9.20;99.90;;;;;;5013329;28;20571;-73
2022/11/10 03:00:57;;;;;;;35.77;22.17;;;9.20;99.90;;;;;;5012800;28;20645;-72
2022/11/10 03:03:24;;;;;;;33.87;21.67;;;9.20;99.90;;;;;;5015072;28;20230;-72
2022/11/10 03:05:51;;;;;;;33.03;20.90;;;9.20;99.90;;;;;;5013000;28;20239;-71
2022/11/10 03:08:17;;;;;;;34.43;21.83;;;9.20;99.90;;;;;;5012870;28;20203;-72
2022/11/10 03:10:44;;;;;;;33.03;20.27;;;9.20;99.90;;;;;;5012114;28;20431;-71
2022/11/10 03:13:12;;;;;;;33.77;21.00;;;9.20;99.90;;;;;;5001781;28;20208;-72
2022/11/10 03:15:39;;;;;;;35.03;22.00;;;9.30;99.90;;;;;;5011823;28;20672;-71
2022/11/10 03:18:06;;;;;;;29.47;20.30;;;9.30;99.90;;;;;;5010707;28;20211;-72
2022/11/10 03:20:33;;;;;;;35.57;21.20;;;9.30;99.90;;;;;;5012395;28;20221;-71
2022/11/10 03:23:03;;;;;;;33.70;21.30;;;9.30;99.90;;;;;;5012245;28;20241;-72
2022/11/10 03:25:30;;;;;;;34.07;22.13;;;9.40;99.90;;;;;;5011745;28;20219;-72
2022/11/10 03:27:57;;;;;;;34.33;21.20;;;9.30;99.90;;;;;;5011976;28;20668;-72
2022/11/10 03:30:26;;;;;;;30.87;21.10;;;9.30;99.90;;;;;;5004051;28;20208;-73
2022/11/10 03:32:53;;;;;;;32.27;21.20;;;9.30;99.90;;;;;;5010351;28;20215;-71
2022/11/10 03:35:20;;;;;;;35.00;21.00;;;9.40;99.90;;;;;;5012343;28;20589;-72
2022/11/10 03:37:46;;;;;;;33.40;21.73;;;9.40;99.90;;;;;;5012478;28;20225;-72
2022/11/10 03:40:13;;;;;;;39.27;22.30;;;9.50;99.90;;;;;;5011685;28;20215;-73
2022/11/10 03:42:44;;;;;;;35.97;21.93;;;9.50;99.90;;;;;;5011815;28;20214;-71
2022/11/10 03:45:12;;;;;;;34.37;21.37;;;9.50;99.90;;;;;;5012402;28;20203;-72
2022/11/10 03:47:41;;;;;;;32.70;20.90;;;9.50;99.90;;;;;;5010767;28;20211;-72
2022/11/10 03:50:08;;;;;;;32.97;21.33;;;9.50;99.90;;;;;;5011069;28;20604;-72
2022/11/10 03:52:35;;;;;;;35.53;22.50;;;9.50;99.90;;;;;;5012256;28;20585;-72
2022/11/10 03:55:02;;;;;;;35.47;22.67;;;9.60;99.90;;;;;;5010996;28;20663;-72
2022/11/10 03:57:28;;;;;;;35.93;21.97;;;9.60;99.90;;;;;;5012577;28;20214;-72
2022/11/10 03:59:55;;;;;;;32.50;21.10;;;9.60;99.90;;;;;;5011288;28;20274;-72
2022/11/10 04:02:22;;;;;;;34.90;21.47;;;9.60;99.90;;;;;;5010441;28;20208;-72
2022/11/10 04:10:19;;;;;;;35.13;22.60;;;9.60;99.90;;;;;;5010420;28;20206;-72
2022/11/10 04:15:42;;;;;;;35.20;22.37;;;9.60;99.90;;;;;;5006737;28;20210;-72
2022/11/10 04:18:23;;;;;;;34.63;21.27;;;9.60;99.90;;;;;;5011445;28;20210;-72
2022/11/10 04:20:53;;;;;;;33.57;21.20;;;9.70;99.90;;;;;;5009748;28;20631;-71
2022/11/10 04:23:27;;;;;;;35.50;21.47;;;9.70;99.90;;;;;;5010112;28;20611;-71
2022/11/10 04:28:43;;;;;;;33.13;21.03;;;9.70;99.90;;;;;;5002943;28;20202;-72
2022/11/10 04:31:11;;;;;;;35.63;21.23;;;9.70;99.90;;;;;;5011010;28;20215;-72
2022/11/10 04:33:39;;;;;;;33.73;21.57;;;9.70;99.90;;;;;;5001939;28;20202;-72
2022/11/10 04:36:08;;;;;;;33.23;20.73;;;9.70;99.90;;;;;;5010449;28;20204;-71
2022/11/10 04:38:35;;;;;;;36.23;22.77;;;9.70;99.90;;;;;;5011172;28;20211;-71
2022/11/10 04:41:02;;;;;;;36.10;22.17;;;9.70;99.90;;;;;;5010110;28;20211;-71
2022/11/10 04:43:29;;;;;;;33.67;22.20;;;9.80;99.90;;;;;;5010587;28;20199;-72
2022/11/10 04:45:57;;;;;;;36.43;20.93;;;9.80;99.90;;;;;;5010790;28;20237;-72
2022/11/10 04:48:24;;;;;;;38.50;21.40;;;9.80;99.90;;;;;;5010388;28;20657;-71
2022/11/10 04:50:51;;;;;;;34.17;21.97;;;9.80;99.90;;;;;;5012584;28;20574;-73
2022/11/10 04:53:20;;;;;;;37.47;21.93;;;9.80;99.90;;;;;;5014795;28;20656;-73
2022/11/10 04:55:47;;;;;;;38.97;23.00;;;9.80;99.90;;;;;;5010742;28;20215;-71
2022/11/10 04:58:15;;;;;;;35.40;21.93;;;9.80;99.90;;;;;;5010940;28;20215;-72
2022/11/10 05:00:42;;;;;;;33.03;21.43;;;9.80;99.90;;;;;;5011664;28;20234;-72
2022/11/10 05:03:11;;;;;;;34.57;22.43;;;9.80;99.90;;;;;;5011136;28;20262;-71
2022/11/10 05:05:37;;;;;;;35.90;21.87;;;9.80;99.90;;;;;;5011090;28;20458;-71
2022/11/10 05:08:05;;;;;;;36.67;23.37;;;9.80;99.90;;;;;;5008838;28;20223;-72
2022/11/10 05:10:33;;;;;;;34.93;22.27;;;9.80;99.90;;;;;;5007484;28;20204;-72
2022/11/10 05:13:02;;;;;;;34.83;22.33;;;9.80;99.90;;;;;;5014503;28;20214;-71
2022/11/10 05:15:29;;;;;;;38.07;22.47;;;9.80;99.90;;;;;;5014540;28;20211;-70
2022/11/10 05:17:55;;;;;;;34.03;21.90;;;9.90;99.90;;;;;;5013604;28;20219;-71
2022/11/10 05:20:24;;;;;;;36.43;22.90;;;9.90;99.90;;;;;;5014994;28;20741;-72
2022/11/10 05:25:39;;;;;;;35.73;22.27;;;9.90;99.90;;;;;;5009028;28;20250;-71
2022/11/10 05:28:08;;;;;;;37.20;21.70;;;9.90;99.90;;;;;;5014757;28;20210;-72
2022/11/10 05:30:35;;;;;;;37.33;22.80;;;9.80;99.90;;;;;;5013441;28;20218;-71
2022/11/10 05:33:02;;;;;;;36.63;21.93;;;9.80;99.90;;;;;;5012442;28;20207;-73
2022/11/10 05:35:29;;;;;;;37.53;21.80;;;9.90;99.90;;;;;;5006145;28;20203;-71
2022/11/10 05:37:56;;;;;;;36.03;23.20;;;9.90;99.90;;;;;;5014838;28;20207;-71
2022/11/10 05:40:25;;;;;;;38.30;22.90;;;9.90;99.90;;;;;;5012793;28;20567;-74
2022/11/10 05:42:53;;;;;;;35.73;22.40;;;9.90;99.90;;;;;;5014720;28;20672;-73
2022/11/10 05:45:21;;;;;;;37.83;21.37;;;9.90;99.90;;;;;;5013341;28;20608;-72
2022/11/10 05:47:49;;;;;;;38.67;22.53;;;9.90;99.90;;;;;;5014974;28;20688;-72
2022/11/10 05:50:16;;;;;;;37.13;22.83;;;9.90;99.90;;;;;;5011928;28;20563;-71
2022/11/10 05:52:45;;;;;;;37.20;24.17;;;9.90;99.90;;;;;;5006772;28;20211;-71
2022/11/10 05:55:13;;;;;;;37.50;22.33;;;9.90;99.90;;;;;;5014502;28;20204;-71
2022/11/10 05:57:42;;;;;;;37.00;22.90;;;9.90;99.90;;;;;;5013876;28;20204;-71
2022/11/10 06:00:12;;;;;;;36.17;22.97;;;9.90;99.90;;;;;;5012259;28;20269;-70
2022/11/10 06:02:39;;;;;;;40.20;23.53;;;9.90;99.90;;;;;;5012434;28;20666;-71
2022/11/10 06:05:08;;;;;;;37.43;22.67;;;9.90;99.90;;;;;;5015987;28;20561;-71
2022/11/10 06:07:35;;;;;;;37.63;23.23;;;9.90;99.90;;;;;;5018020;28;20467;-69
2022/11/10 06:10:01;;;;;;;38.03;23.53;;;9.90;99.90;;;;;;5019458;28;20211;-72
2022/11/10 06:12:29;;;;;;;38.73;23.13;;;9.90;99.90;;;;;;5018602;28;20214;-69
2022/11/10 06:14:56;;;;;;;35.87;23.10;;;9.90;99.90;;;;;;5021911;28;20207;-69
2022/11/10 06:17:25;;;;;;;38.20;22.37;;;9.90;99.90;;;;;;5020357;28;20269;-69
2022/11/10 06:19:51;;;;;;;37.80;22.27;;;9.90;99.90;;;;;;5021220;28;20342;-69
2022/11/10 06:22:19;;;;;;;38.03;23.40;;;10.00;99.90;;;;;;5020055;28;20451;-69
2022/11/10 06:24:45;;;;;;;39.23;23.27;;;9.90;99.90;;;;;;5026067;28;20208;-69
2022/11/10 06:27:12;;;;;;;37.70;23.27;;;10.00;99.90;;;;;;5026337;28;20233;-68
2022/11/10 06:29:39;;;;;;;38.20;21.93;;;10.00;99.90;;;;;;5021791;28;20207;-68
2022/11/10 06:32:05;;;;;;;40.85;23.30;;;10.00;99.90;;;;;;5019235;28;20462;-67
2022/11/10 06:34:34;;;;;;;38.83;24.43;;;10.00;99.90;;;;;;5016795;28;20215;-68
2022/11/10 06:37:01;;;;;;;35.40;22.33;;;10.00;99.90;;;;;;5024117;28;20217;-69
2022/11/10 06:39:28;;;;;;;37.47;22.07;;;10.00;99.90;;;;;;5019529;28;20294;-69
2022/11/10 06:41:54;;;;;;;37.50;23.40;;;10.00;99.90;;;;;;5013925;28;20247;-72
2022/11/10 06:44:21;;;;;;;35.87;22.67;;;10.00;99.90;;;;;;5014015;28;20208;-73
2022/11/10 06:46:49;;;;;;;39.03;21.97;;;10.10;99.90;;;;;;5011040;28;20597;-70
2022/11/10 06:49:16;;;;;;;38.37;22.63;;;10.00;99.90;;;;;;5004928;28;20207;-70
2022/11/10 06:51:45;;;;;;;37.03;22.60;;;9.90;99.90;;;;;;5020780;28;20207;-71
2022/11/10 06:54:11;;;;;;;41.43;23.63;;;10.00;99.90;;;;;;5016583;28;20306;-70
2022/11/10 06:56:38;;;;;;;35.90;21.30;;;10.10;99.90;;;;;;5015683;28;20203;-71
2022/11/10 06:59:05;;;;;;;34.97;21.53;;;10.10;99.90;;;;;;5012953;28;20211;-70
2022/11/10 07:01:32;;;;;;;38.87;21.57;;;10.10;99.90;;;;;;5012095;28;20548;-67
2022/11/10 07:03:59;;;;;;;36.53;20.63;;;10.10;99.90;;;;;;5012411;28;20238;-70
2022/11/10 07:06:25;;;;;;;33.73;20.43;;;10.10;99.90;;;;;;5016082;28;20226;-68
2022/11/10 07:08:53;;;;;;;36.83;22.07;;;10.20;99.90;;;;;;5019620;28;20226;-66
2022/11/10 07:11:20;;;;;;;37.60;21.93;;;10.10;99.90;;;;;;5011098;28;20212;-70
2022/11/10 07:13:47;;;;;;;36.30;22.20;;;10.20;99.90;;;;;;5008528;28;20584;-69
2022/11/10 07:16:14;;;;;;;45.03;27.77;;;10.20;99.90;;;;;;5008604;28;20819;-69
2022/11/10 07:18:40;;;;;;;35.37;22.30;;;10.20;99.90;;;;;;5007510;28;20548;-70
2022/11/10 07:21:07;;;;;;;41.72;27.60;;;10.20;99.90;;;;;;5010335;28;20458;-70
2022/11/10 07:23:34;;;;;;;38.67;24.98;;;10.20;99.90;;;;;;5007482;28;20458;-68
2022/11/10 07:26:02;;;;;;;34.03;21.90;;;10.20;99.90;;;;;;5017127;28;20243;-70
2022/11/10 07:28:29;;;;;;;36.47;21.53;;;10.30;99.90;;;;;;5022782;28;20223;-70
2022/11/10 07:30:56;;;;;;;34.00;20.47;;;10.30;99.90;;;;;;5011004;28;20290;-70
2022/11/10 07:33:23;;;;;;;34.00;22.03;;;10.30;99.90;;;;;;5008643;28;20207;-69
2022/11/10 07:35:53;;;;;;;33.20;21.00;;;10.40;99.90;;;;;;5010592;28;20684;-73
2022/11/10 07:38:20;;;;;;;35.60;19.63;;;10.40;99.90;;;;;;5012387;28;20203;-76
2022/11/10 07:40:51;;;;;;;33.37;20.83;;;10.40;99.90;;;;;;5010393;28;20203;-79
2022/11/10 07:43:19;;;;;;;35.30;19.97;;;10.40;99.90;;;;;;5011018;28;20211;-75
2022/11/10 07:45:46;;;;;;;32.07;19.83;;;10.50;99.90;;;;;;5012535;28;20323;-72
2022/11/10 07:48:13;;;;;;;31.90;19.63;;;10.50;99.90;;;;;;5011697;28;20274;-74
2022/11/10 07:50:40;;;;;;;33.17;20.63;;;10.50;99.90;;;;;;5008582;28;20203;-71
2022/11/10 07:53:09;;;;;;;32.03;20.03;;;10.50;99.90;;;;;;5011689;28;20214;-72
2022/11/10 07:55:37;;;;;;;36.57;20.73;;;10.50;99.90;;;;;;5007559;28;20203;-71
2022/11/10 07:58:04;;;;;;;36.20;21.07;;;10.60;99.90;;;;;;5011592;28;20620;-71
2022/11/10 08:00:33;;;;;;;36.43;20.97;;;10.50;99.90;;;;;;5011549;28;20234;-72
2022/11/10 08:03:04;;;;;;;34.50;20.97;;;10.60;99.90;;;;;;5008870;28;20266;-71
2022/11/10 08:05:33;;;;;;;31.20;19.33;;;10.60;99.90;;;;;;5009663;28;20218;-72
2022/11/10 08:08:00;;;;;;;34.83;20.00;;;10.60;99.90;;;;;;5004854;28;20227;-70
2022/11/10 08:10:27;;;;;;;36.33;19.87;;;10.60;99.90;;;;;;5008223;28;20234;-68
2022/11/10 08:12:55;;;;;;;33.40;19.83;;;10.60;99.90;;;;;;5008096;28;20207;-70
2022/11/10 08:15:22;;;;;;;31.57;20.10;;;10.60;99.90;;;;;;5005039;28;20207;-72
2022/11/10 08:17:50;;;;;;;34.03;19.73;;;10.70;99.90;;;;;;5010045;28;20652;-74
2022/11/10 08:20:17;;;;;;;32.10;19.63;;;10.70;99.90;;;;;;5008912;28;20273;-70
2022/11/10 08:22:44;;;;;;;33.00;19.53;;;10.70;99.90;;;;;;5003456;28;20210;-70
2022/11/10 08:25:11;;;;;;;33.83;19.40;;;10.70;99.90;;;;;;5004978;28;20214;-73
2022/11/10 08:27:38;;;;;;;34.43;19.73;;;10.70;99.90;;;;;;5006706;28;20574;-73
2022/11/10 08:30:07;;;;;;;33.67;19.37;;;10.70;99.90;;;;;;5006422;28;20218;-70
2022/11/10 08:32:33;;;;;;;30.13;19.73;;;10.70;99.90;;;;;;5002275;28;20249;-70
2022/11/10 08:35:02;;;;;;;35.40;18.63;;;10.70;99.90;;;;;;4999770;28;20433;-70
2022/11/10 08:37:29;;;;;;;33.13;18.87;;;10.80;99.90;;;;;;5005453;28;20208;-69
2022/11/10 08:39:56;;;;;;;29.67;18.73;;;10.80;99.90;;;;;;5006717;28;20671;-70
2022/11/10 08:42:22;;;;;;;29.93;18.67;;;10.80;99.90;;;;;;5008343;28;20241;-69
2022/11/10 08:44:49;;;;;;;30.10;19.30;;;10.80;99.90;;;;;;5008570;28;20588;-71
2022/11/10 08:47:16;;;;;;;28.97;16.83;;;10.80;99.90;;;;;;5007122;28;20590;-70
2022/11/10 08:49:43;;;;;;;26.53;17.50;;;10.80;99.90;;;;;;5005646;28;20679;-70
2022/11/10 08:52:12;;;;;;;27.27;16.73;;;10.80;99.90;;;;;;5008494;28;20617;-70
2022/11/10 08:54:39;;;;;;;30.77;17.47;;;10.90;99.90;;;;;;5005964;28;20215;-71
2022/11/10 08:57:06;;;;;;;29.80;18.23;;;10.90;99.90;;;;;;5009313;28;20245;-70
2022/11/10 08:59:33;;;;;;;26.97;17.13;;;10.90;99.90;;;;;;5002327;28;20285;-72
2022/11/10 09:02:00;;;;;;;25.37;15.93;;;11.00;99.90;;;;;;5004538;28;20208;-70
2022/11/10 09:04:26;;;;;;;30.27;17.77;;;11.00;99.90;;;;;;4995829;28;20234;-69
2022/11/10 09:06:56;;;;;;;34.33;17.63;;;11.00;99.90;;;;;;4995294;28;20849;-70
2022/11/10 09:09:24;;;;;;;30.07;16.40;;;11.00;99.90;;;;;;4999896;28;20208;-70
2022/11/10 09:11:51;;;;;;;25.97;16.83;;;11.10;99.90;;;;;;5001730;28;20594;-72
2022/11/10 09:14:18;;;;;;;30.00;17.07;;;11.10;99.90;;;;;;5001919;28;20238;-71
2022/11/10 09:16:45;;;;;;;29.03;17.47;;;11.10;99.90;;;;;;4997434;28;20265;-68
2022/11/10 09:19:11;;;;;;;28.00;17.43;;;11.00;99.90;;;;;;5001303;28;20549;-70
2022/11/10 09:21:38;;;;;;;28.50;18.57;;;11.10;99.90;;;;;;5001564;28;20214;-71
2022/11/10 09:24:06;;;;;;;32.17;17.87;;;11.10;99.90;;;;;;5007163;28;20218;-70
2022/11/10 09:26:34;;;;;;;29.60;17.93;;;11.10;99.90;;;;;;5003390;28;20283;-69
2022/11/10 09:29:01;;;;;;;28.63;17.93;;;11.10;99.90;;;;;;5002500;28;20231;-72
2022/11/10 09:31:28;;;;;;;24.40;16.70;;;11.20;99.90;;;;;;5004761;28;20207;-72
2022/11/10 09:33:54;;;;;;;28.17;16.93;;;11.20;99.90;;;;;;5000460;28;20668;-73
2022/11/10 09:36:21;;;;;;;25.53;16.50;;;11.20;99.90;;;;;;4999593;28;21196;-71
2022/11/10 09:38:48;;;;;;;29.40;17.47;;;11.20;99.90;;;;;;4999572;28;20212;-70
2022/11/10 09:41:15;;;;;;;24.93;16.37;;;11.30;99.90;;;;;;4995476;28;20579;-71
2022/11/10 09:43:48;;;;;;;27.70;17.80;;;11.30;99.90;;;;;;5000893;28;20211;-71
2022/11/10 09:46:20;;;;;;;25.60;16.63;;;11.30;99.90;;;;;;4999121;28;20226;-70
2022/11/10 09:48:51;;;;;;;27.87;16.90;;;11.30;99.90;;;;;;4999281;28;20739;-70
2022/11/10 09:51:22;;;;;;;26.63;17.07;;;11.40;99.90;;;;;;5001013;28;20204;-71
2022/11/10 09:53:51;;;;;;;28.47;18.03;;;11.40;99.90;;;;;;5003362;28;20214;-70
2022/11/10 09:56:22;;;;;;;31.00;18.07;;;11.30;99.90;;;;;;5000830;28;20250;-70
2022/11/10 09:58:51;;;;;;;25.73;15.80;;;11.40;99.90;;;;;;4999754;28;20203;-70
2022/11/10 10:01:29;;;;;;;23.87;16.50;;;11.40;99.90;;;;;;5004669;28;20204;-71
2022/11/10 10:04:10;;;;;;;29.63;17.47;;;11.40;99.90;;;;;;5002092;28;20770;-70
2022/11/10 10:06:44;;;;;;;23.80;16.23;;;11.40;99.90;;;;;;5004264;28;20208;-71
2022/11/10 10:09:21;;;;;;;26.10;16.13;;;11.40;99.90;;;;;;5006264;28;20445;-72
2022/11/10 10:11:59;;;;;;;25.87;15.83;;;11.40;99.90;;;;;;5006787;28;20207;-70
2022/11/10 10:14:51;;;;;;;28.83;17.10;;;11.40;99.90;;;;;;5006881;28;20289;-70
2022/11/10 10:17:24;;;;;;;27.70;16.30;;;11.50;99.90;;;;;;5004402;28;20498;-70
2022/11/10 10:19:58;;;;;;;25.50;15.57;;;11.60;99.90;;;;;;5002006;28;20210;-70
2022/11/10 10:22:52;;;;;;;25.33;16.33;;;11.60;99.90;;;;;;5005762;28;20195;-70
2022/11/10 10:25:22;;;;;;;22.07;14.63;;;11.60;99.90;;;;;;5003424;28;20214;-74
2022/11/10 10:27:57;;;;;;;25.20;16.00;;;11.70;99.90;;;;;;5005646;28;20321;-72
2022/11/10 10:30:26;;;;;;;27.40;17.20;;;11.80;99.90;;;;;;5014203;28;20225;-69
2022/11/10 10:32:57;;;;;;;21.97;14.77;;;11.80;99.90;;;;;;5010747;28;20222;-71
2022/11/10 10:35:25;;;;;;;24.43;14.83;;;12.00;99.90;;;;;;5009897;28;20203;-71
2022/11/10 10:37:55;;;;;;;21.90;14.80;;;12.00;99.90;;;;;;5004725;28;20666;-76
2022/11/10 10:40:23;;;;;;;25.13;14.97;;;12.00;99.90;;;;;;5010548;28;20211;-72
2022/11/10 10:42:51;;;;;;;23.30;14.27;;;12.10;99.90;;;;;;5008556;28;20302;-71
2022/11/10 10:45:21;;;;;;;20.87;14.83;;;12.10;99.90;;;;;;5011975;28;20213;-71
2022/11/10 10:47:51;;;;;;;20.90;13.97;;;12.20;99.90;;;;;;5008089;28;20231;-72
2022/11/10 10:50:31;;;;;;;20.77;14.23;;;12.20;99.90;;;;;;5005900;28;20207;-72
2022/11/10 10:53:17;;;;;;;20.13;14.20;;;12.20;99.90;;;;;;5009210;28;20349;-72
2022/11/10 10:55:49;;;;;;;23.07;15.43;;;12.20;99.90;;;;;;5007245;28;20222;-73
2022/11/10 10:58:22;;;;;;;22.20;14.87;;;12.20;99.90;;;;;;5005982;28;20203;-71
2022/11/10 11:00:52;;;;;;;19.90;14.03;;;12.20;99.90;;;;;;5007214;28;20227;-72
2022/11/10 11:03:29;;;;;;;20.70;14.80;;;12.30;99.90;;;;;;5009222;28;20727;-70
2022/11/10 11:06:20;;;;;;;24.40;14.23;;;12.40;99.90;;;;;;5009222;28;20259;-72
2022/11/10 11:08:58;;;;;;;21.67;13.63;;;12.50;99.90;;;;;;5010235;28;21435;-71
2022/11/10 11:11:26;;;;;;;22.03;14.47;;;12.70;99.90;;;;;;5009715;28;20567;-72
2022/11/10 11:13:53;;;;;;;20.80;13.90;;;12.80;99.90;;;;;;5011347;28;20254;-70
2022/11/10 11:16:20;;;;;;;19.23;13.63;;;12.80;99.90;;;;;;5021379;28;20211;-69
2022/11/10 11:18:48;;;;;;;18.63;13.23;;;12.70;99.90;;;;;;5028267;28;20207;-68
2022/11/10 11:21:27;;;;;;;19.30;13.53;;;12.70;99.90;;;;;;5013820;28;20199;-71
2022/11/10 11:24:20;;;;;;;19.43;12.43;;;12.70;99.90;;;;;;5012138;28;20203;-68
2022/11/10 11:26:55;;;;;;;17.63;12.67;;;12.70;99.90;;;;;;5007487;28;20226;-68
2022/11/10 11:29:42;;;;;;;18.33;12.03;;;12.90;99.90;;;;;;5012061;28;20472;-71
2022/11/10 11:32:23;;;;;;;18.90;12.33;;;12.90;99.90;;;;;;5015943;28;20214;-69
2022/11/10 11:35:01;;;;;;;16.93;11.83;;;12.90;99.90;;;;;;5022060;28;20623;-71
2022/11/10 11:37:37;;;;;;;17.17;11.93;;;12.90;99.90;;;;;;5024373;28;20271;-70
2022/11/10 11:40:19;;;;;;;18.77;11.73;;;12.90;99.90;;;;;;5013473;28;20223;-71
2022/11/10 11:42:55;;;;;;;17.20;11.63;;;12.80;99.90;;;;;;5017435;28;20207;-71
2022/11/10 11:45:28;;;;;;;16.87;11.87;;;12.70;99.90;;;;;;5013729;28;20195;-70
2022/11/10 11:48:08;;;;;;;17.77;11.63;;;12.70;99.90;;;;;;5017161;28;20220;-68
2022/11/10 11:50:42;;;;;;;23.10;12.37;;;12.70;99.90;;;;;;5018784;28;20202;-68
2022/11/10 11:53:22;;;;;;;15.10;10.83;;;12.70;99.90;;;;;;5020367;28;20562;-68
2022/11/10 11:56:03;;;;;;;15.30;11.10;;;12.80;99.90;;;;;;5021858;28;20237;-69
2022/11/10 11:58:43;;;;;;;16.33;11.00;;;12.80;99.90;;;;;;5021543;28;20214;-69
2022/11/10 12:01:23;;;;;;;15.57;10.37;;;12.80;99.90;;;;;;5017590;28;20253;-69
2022/11/10 12:04:11;;;;;;;16.10;11.17;;;12.90;99.90;;;;;;5023885;28;20768;-67
2022/11/10 12:06:52;;;;;;;17.73;11.07;;;13.10;99.90;;;;;;5017079;28;20210;-69
2022/11/10 12:09:27;;;;;;;12.37;9.93;;;13.30;99.90;;;;;;5012373;28;20214;-73
2022/11/10 12:12:14;;;;;;;15.90;11.07;;;13.40;99.90;;;;;;5016244;28;20199;-68
2022/11/10 12:14:50;;;;;;;12.63;10.37;;;13.40;99.90;;;;;;5029425;28;20207;-69
2022/11/10 12:17:29;;;;;;;15.13;10.97;;;13.40;99.90;;;;;;5030127;28;20201;-68
2022/11/10 12:20:07;;;;;;;13.27;9.87;;;13.30;99.90;;;;;;5030952;28;20174;-68
2022/11/10 12:22:47;;;;;;;14.83;11.37;;;13.20;99.90;;;;;;5028227;28;20199;-68
2022/11/10 12:25:24;;;;;;;15.53;11.93;;;13.20;99.90;;;;;;5029277;28;20214;-69
2022/11/10 12:27:55;;;;;;;15.20;9.93;;;13.20;99.90;;;;;;5028780;28;20203;-69
2022/11/10 12:30:22;;;;;;;14.53;10.43;;;13.20;99.90;;;;;;5030578;28;20214;-69
2022/11/10 12:32:54;;;;;;;14.27;10.60;;;13.10;99.90;;;;;;5029889;28;20199;-68
2022/11/10 12:35:23;;;;;;;14.43;10.20;;;13.10;99.90;;;;;;5029885;28;20202;-68
2022/11/10 12:37:55;;;;;;;15.03;9.83;;;13.00;99.90;;;;;;5030115;28;20187;-68
2022/11/10 12:40:25;;;;;;;12.53;9.90;;;13.00;99.90;;;;;;5030713;28;20183;-68
2022/11/10 12:42:57;;;;;;;16.87;10.17;;;13.00;99.90;;;;;;5029071;28;20214;-68
2022/11/10 12:45:27;;;;;;;14.37;10.00;;;12.90;99.90;;;;;;5030458;28;20254;-68
2022/11/10 12:47:54;;;;;;;12.67;9.60;;;12.90;99.90;;;;;;5031277;28;20189;-70
2022/11/10 12:50:38;;;;;;;17.23;10.00;;;12.80;99.90;;;;;;5032432;28;20204;-69
2022/11/10 12:53:13;;;;;;;11.63;9.03;;;12.80;99.90;;;;;;5032432;28;20195;-69
2022/11/10 12:55:44;;;;;;;14.77;9.87;;;12.80;99.90;;;;;;5032345;28;20680;-69
2022/11/10 12:58:13;;;;;;;15.77;9.40;;;12.70;99.90;;;;;;5032271;28;20188;-68
2022/11/10 13:00:43;;;;;;;12.43;8.97;;;12.70;99.90;;;;;;5030197;28;20226;-68